Date,TemperatureHighF,TemperatureAvgF,TemperatureLowF,DewpointHighF,DewpointAvgF,DewpointLowF,HumidityHigh,HumidityAvg,HumidityLow,PressureMaxIn,PressureMinIn,WindSpeedMaxMPH,WindSpeedAvgMPH,GustSpeedMaxMPH,PrecipitationSumIn
2013-1-1,56.2,46.8,40.2,39.0,34.1,28.0,82,63,42,30.27,30.21,5,1,14,0.00
2013-1-2,59.1,49.0,41.6,35.0,30.7,27.0,63,51,36,30.25,30.14,5,1,8,0.00
2013-1-3,60.9,47.4,38.3,43.0,36.2,29.0,82,66,50,30.27,30.17,5,0,7,0.00
2013-1-4,60.6,49.8,41.4,39.0,35.0,32.0,78,58,39,30.29,30.18,5,0,10,0.00
2013-1-5,52.9,46.9,41.4,47.0,42.8,37.0,94,86,76,30.27,30.07,5,1,10,0.39
2013-1-6,51.3,45.8,42.4,46.0,43.1,41.0,95,90,77,30.20,30.07,9,0,9,0.01
2013-1-7,60.3,48.5,41.4,48.0,44.2,40.0,96,86,63,30.27,30.16,5,0,6,0.00
2013-1-8,65.9,52.1,44.2,49.0,45.0,42.0,94,78,54,30.25,30.13,2,0,5,0.00
2013-1-9,51.7,47.0,41.7,49.0,42.1,36.0,94,83,69,30.15,30.00,5,1,10,0.00
2013-1-10,53.3,44.2,37.2,38.0,34.9,33.0,90,71,47,30.20,30.09,3,1,10,0.00
2013-1-11,55.2,44.0,38.9,41.0,35.6,32.0,90,73,57,30.26,30.13,3,0,6,0.00
2013-1-12,53.7,44.1,35.4,37.0,29.9,24.0,89,60,34,30.26,30.15,4,1,6,0.00
2013-1-13,53.9,42.9,33.7,33.0,24.1,16.0,72,49,29,30.27,30.18,3,0,7,0.00
2013-1-14,55.0,44.1,35.5,27.0,20.8,16.0,61,41,28,30.41,30.23,4,0,10,0.00
2013-1-15,55.7,45.2,36.2,31.0,27.3,23.0,70,51,33,30.48,30.40,5,1,8,0.00
2013-1-16,61.2,48.1,37.3,39.0,31.5,25.0,78,55,33,30.44,30.25,3,0,9,0.00
2013-1-17,66.2,55.3,45.5,40.0,30.2,23.0,62,40,26,30.26,30.14,5,1,10,0.00
2013-1-18,67.2,56.2,47.5,37.0,31.0,22.0,65,40,26,30.22,30.12,5,1,13,0.00
2013-1-19,64.9,54.3,40.4,37.0,29.1,22.0,77,40,25,30.24,30.15,5,1,10,0.00
2013-1-20,67.0,54.8,42.9,38.0,30.1,24.0,80,42,26,30.21,30.12,7,1,11,0.00
2013-1-21,69.2,55.1,43.7,40.0,33.7,26.0,63,46,32,30.17,30.07,7,1,9,0.00
2013-1-22,68.8,55.4,47.0,45.0,40.4,36.0,74,58,40,30.10,29.99,4,0,14,0.00
2013-1-23,54.3,51.7,49.3,52.0,46.7,41.0,96,83,68,30.08,29.95,4,0,8,0.29
2013-1-24,61.0,54.0,49.7,53.0,50.0,48.0,94,87,74,30.19,30.06,5,1,9,0.00
2013-1-25,68.7,57.7,51.6,56.0,52.1,50.0,94,82,62,30.19,30.04,3,1,7,0.00
2013-1-26,61.3,52.3,44.9,50.0,44.1,39.0,95,76,46,30.08,29.99,4,0,7,0.00
2013-1-27,59.5,47.8,40.9,40.0,37.7,33.0,84,70,38,30.18,30.07,4,0,7,0.00
2013-1-28,61.1,48.8,41.0,44.0,39.7,36.0,87,72,46,30.29,30.17,4,1,10,0.00
2013-1-29,62.3,50.2,41.5,44.0,41.1,38.0,88,72,47,30.36,30.27,4,0,6,0.00
2013-1-30,64.9,53.3,44.9,48.0,43.8,41.0,91,72,46,30.34,30.26,4,1,6,0.00
2013-1-31,71.0,55.9,46.5,48.0,44.4,41.0,84,67,44,30.29,30.16,5,0,6,0.00